Time;durP1;ratioP1;P1;durP2;ratioP2;P2;SDS_P1;SDS_P2;PMS_P1;PMS_P2;Temp;Humidity;BMP_temperature;BMP_pressure;BME280_temperature;BME280_humidity;BME280_pressure;Samples;Min_cycle;Max_cycle;Signal;HPM_P1;HPM_P2
2023/02/28 00:01:08;;;;;;;3.78;2.20;;;;;;;;;;5033124;28;20112;-66
2023/02/28 00:03:35;;;;;;;3.60;2.03;;;;;;;;;;5033239;28;20106;-66
2023/02/28 00:06:02;;;;;;;4.22;2.55;;;;;;;;;;5032768;28;20533;-66
2023/02/28 00:08:28;;;;;;;4.93;2.22;;;;;;;;;;5032316;28;20497;-66
2023/02/28 00:10:54;;;;;;;4.57;2.45;;;;;;;;;;5032631;28;20060;-64
2023/02/28 00:13:20;;;;;;;4.43;2.40;;;;;;;;;;5032397;28;20563;-65
2023/02/28 00:15:46;;;;;;;3.13;2.05;;;;;;;;;;5032354;28;20036;-63
2023/02/28 00:18:13;;;;;;;4.43;2.60;;;;;;;;;;5032387;28;20033;-65
2023/02/28 00:20:39;;;;;;;4.50;2.50;;;;;;;;;;5032837;28;20037;-61
2023/02/28 00:23:05;;;;;;;5.80;2.72;;;;;;;;;;5032693;28;20040;-66
2023/02/28 00:25:31;;;;;;;4.18;2.15;;;;;;;;;;5032293;28;20024;-62
2023/02/28 00:27:57;;;;;;;5.20;2.47;;;;;;;;;;5031743;28;20022;-64
2023/02/28 00:30:23;;;;;;;4.85;2.20;;;;;;;;;;5031364;28;20487;-65
2023/02/28 00:32:50;;;;;;;4.57;2.10;;;;;;;;;;5031472;28;20018;-64
2023/02/28 00:35:16;;;;;;;4.13;2.33;;;;;;;;;;5031766;28;20021;-65
2023/02/28 00:37:42;;;;;;;4.70;2.25;;;;;;;;;;5031009;28;20030;-67
2023/02/28 00:40:11;;;;;;;3.65;2.20;;;;;;;;;;5031832;28;20072;-65
2023/02/28 00:42:37;;;;;;;3.72;1.65;;;;;;;;;;5031404;28;20022;-65
2023/02/28 00:45:04;;;;;;;3.78;2.10;;;;;;;;;;5031812;28;20034;-65
2023/02/28 00:47:30;;;;;;;3.38;2.03;;;;;;;;;;5031464;28;20413;-64
2023/02/28 00:49:56;;;;;;;3.85;2.25;;;;;;;;;;5029634;28;20021;-66
2023/02/28 00:52:22;;;;;;;4.80;1.75;;;;;;;;;;5029995;28;20034;-64
2023/02/28 00:54:48;;;;;;;4.72;2.38;;;;;;;;;;5029846;28;20048;-66
2023/02/28 00:57:14;;;;;;;4.25;2.10;;;;;;;;;;5028900;28;20489;-67
2023/02/28 00:59:40;;;;;;;3.67;1.92;;;;;;;;;;5029158;28;20040;-65
2023/02/28 01:02:06;;;;;;;3.95;2.17;;;;;;;;;;5029741;28;20116;-64
2023/02/28 01:04:32;;;;;;;4.55;2.22;;;;;;;;;;5029939;28;20429;-66
2023/02/28 01:06:58;;;;;;;5.32;2.50;;;;;;;;;;5029562;28;20032;-65
2023/02/28 01:09:24;;;;;;;3.30;1.90;;;;;;;;;;5029714;28;20041;-65
2023/02/28 01:11:50;;;;;;;3.05;1.55;;;;;;;;;;5029275;28;20478;-65
2023/02/28 01:14:17;;;;;;;5.05;1.95;;;;;;;;;;5029790;28;20025;-66
2023/02/28 01:16:43;;;;;;;4.60;1.83;;;;;;;;;;5029073;28;20112;-65
2023/02/28 01:19:09;;;;;;;4.00;1.95;;;;;;;;;;5031257;28;20032;-63
2023/02/28 01:21:36;;;;;;;2.97;1.90;;;;;;;;;;5031978;28;20405;-68
2023/02/28 01:24:02;;;;;;;3.05;1.70;;;;;;;;;;5030633;28;20051;-67
2023/02/28 01:26:28;;;;;;;4.25;1.88;;;;;;;;;;5031548;28;20030;-67
2023/02/28 01:28:54;;;;;;;7.75;1.77;;;;;;;;;;5030942;28;20075;-65
2023/02/28 01:31:20;;;;;;;5.35;2.25;;;;;;;;;;5031579;28;20103;-67
2023/02/28 01:33:46;;;;;;;2.58;1.38;;;;;;;;;;5031050;28;20123;-67
2023/02/28 01:36:20;;;;;;;2.83;1.67;;;;;;;;;;5031464;28;20402;-67
2023/02/28 01:38:46;;;;;;;2.83;1.77;;;;;;;;;;5031219;28;20390;-68
2023/02/28 01:41:32;;;;;;;4.70;1.77;;;;;;;;;;5031046;28;20049;-67
2023/02/28 01:44:02;;;;;;;3.45;1.95;;;;;;;;;;5031116;28;20028;-66
2023/02/28 01:46:28;;;;;;;3.58;1.80;;;;;;;;;;5031212;28;20497;-68
2023/02/28 01:49:01;;;;;;;5.60;1.73;;;;;;;;;;5030983;28;20589;-64
2023/02/28 01:51:30;;;;;;;3.72;1.90;;;;;;;;;;5031331;28;20478;-64
2023/02/28 01:53:59;;;;;;;3.78;1.90;;;;;;;;;;5030278;28;20034;-65
2023/02/28 01:56:28;;;;;;;3.13;1.73;;;;;;;;;;5030778;28;20517;-66
2023/02/28 01:58:54;;;;;;;4.65;1.75;;;;;;;;;;5030152;28;20040;-66
2023/02/28 02:01:21;;;;;;;2.95;1.73;;;;;;;;;;5030508;28;20037;-67
2023/02/28 02:03:58;;;;;;;3.63;1.85;;;;;;;;;;5030580;28;20029;-66
2023/02/28 02:06:26;;;;;;;5.32;1.98;;;;;;;;;;5027410;28;20064;-66
2023/02/28 02:08:52;;;;;;;4.03;2.00;;;;;;;;;;5030273;28;20040;-65
2023/02/28 02:11:19;;;;;;;3.15;1.63;;;;;;;;;;5030462;28;20071;-66
2023/02/28 02:13:59;;;;;;;4.05;1.67;;;;;;;;;;5030153;28;20112;-65
2023/02/28 02:16:31;;;;;;;3.72;1.80;;;;;;;;;;5030547;28;20071;-66
2023/02/28 02:19:07;;;;;;;3.38;1.80;;;;;;;;;;5030487;28;20067;-66
2023/02/28 02:21:36;;;;;;;3.25;1.70;;;;;;;;;;5030495;28;20120;-66
2023/02/28 02:24:08;;;;;;;3.28;1.98;;;;;;;;;;5030253;28;20091;-67
2023/02/28 02:26:54;;;;;;;3.95;1.85;;;;;;;;;;5031147;28;20128;-64
2023/02/28 02:29:20;;;;;;;3.72;2.00;;;;;;;;;;5030822;28;20189;-64
2023/02/28 02:31:46;;;;;;;2.65;1.38;;;;;;;;;;5030512;28;20061;-65
2023/02/28 02:34:15;;;;;;;4.15;2.08;;;;;;;;;;5030674;28;20040;-65
2023/02/28 02:36:40;;;;;;;5.53;1.92;;;;;;;;;;5030667;28;20030;-63
2023/02/28 02:39:10;;;;;;;2.80;1.65;;;;;;;;;;5030986;28;20032;-66
2023/02/28 02:41:42;;;;;;;3.80;1.90;;;;;;;;;;5028876;28;20056;-66
2023/02/28 02:44:26;;;;;;;3.35;1.60;;;;;;;;;;5030522;28;20025;-66
2023/02/28 02:46:54;;;;;;;2.88;1.70;;;;;;;;;;5029598;28;20033;-65
2023/02/28 02:49:23;;;;;;;2.55;1.35;;;;;;;;;;5030348;28;20033;-67
2023/02/28 02:51:50;;;;;;;2.50;1.33;;;;;;;;;;5029910;28;20022;-63
2023/02/28 02:54:21;;;;;;;4.07;2.17;;;;;;;;;;5030111;28;20033;-65
2023/02/28 02:56:48;;;;;;;3.50;2.00;;;;;;;;;;5029735;28;20022;-65
2023/02/28 02:59:20;;;;;;;2.95;1.55;;;;;;;;;;5030396;28;20033;-66
2023/02/28 03:01:49;;;;;;;4.25;1.58;;;;;;;;;;5013990;28;20084;-66
2023/02/28 03:04:20;;;;;;;3.08;1.65;;;;;;;;;;5030606;28;20473;-66
2023/02/28 03:06:46;;;;;;;3.50;1.85;;;;;;;;;;5030021;28;20033;-66
2023/02/28 03:09:12;;;;;;;3.50;1.88;;;;;;;;;;5030348;28;20037;-66
2023/02/28 03:11:38;;;;;;;3.15;1.73;;;;;;;;;;5030175;28;20036;-65
2023/02/28 03:14:22;;;;;;;2.53;1.55;;;;;;;;;;5030835;28;20028;-68
2023/02/28 03:17:06;;;;;;;4.57;1.52;;;;;;;;;;5029387;28;20064;-67
2023/02/28 03:19:55;;;;;;;4.40;1.80;;;;;;;;;;5030929;28;20025;-65
2023/02/28 03:22:24;;;;;;;2.85;1.13;;;;;;;;;;5023676;28;20055;-67
2023/02/28 03:24:53;;;;;;;2.40;1.38;;;;;;;;;;5033530;28;20044;-66
2023/02/28 03:27:25;;;;;;;4.32;1.60;;;;;;;;;;5033723;28;20037;-66
2023/02/28 03:29:55;;;;;;;2.95;1.40;;;;;;;;;;5033629;28;20034;-66
2023/02/28 03:32:27;;;;;;;3.17;1.83;;;;;;;;;;5033571;28;20032;-66
2023/02/28 03:35:00;;;;;;;3.55;1.70;;;;;;;;;;5033503;28;20542;-65
2023/02/28 03:37:29;;;;;;;2.90;1.50;;;;;;;;;;5033631;28;20026;-65
2023/02/28 03:39:58;;;;;;;3.67;1.65;;;;;;;;;;5033327;28;20088;-66
2023/02/28 03:42:26;;;;;;;2.90;1.55;;;;;;;;;;5033559;28;20470;-65
2023/02/28 03:44:58;;;;;;;2.78;1.50;;;;;;;;;;5032996;28;20029;-66
2023/02/28 03:47:40;;;;;;;2.95;1.40;;;;;;;;;;5033429;28;20163;-65
2023/02/28 03:50:12;;;;;;;3.03;1.52;;;;;;;;;;5033816;28;20034;-67
2023/02/28 03:52:45;;;;;;;5.43;1.67;;;;;;;;;;5033748;28;20504;-66
2023/02/28 03:55:12;;;;;;;3.47;1.40;;;;;;;;;;5033100;28;20110;-67
2023/02/28 03:57:40;;;;;;;2.80;1.60;;;;;;;;;;5033349;28;20032;-66
2023/02/28 04:00:13;;;;;;;5.72;1.70;;;;;;;;;;5032842;28;20037;-67
2023/02/28 04:02:39;;;;;;;2.00;1.40;;;;;;;;;;5032473;28;20112;-63
2023/02/28 04:05:06;;;;;;;3.05;1.48;;;;;;;;;;5032981;28;20040;-64
2023/02/28 04:07:33;;;;;;;3.88;1.70;;;;;;;;;;5033154;28;20131;-67
2023/02/28 04:09:59;;;;;;;3.30;1.50;;;;;;;;;;5032359;28;20370;-67
2023/02/28 04:12:26;;;;;;;2.58;1.20;;;;;;;;;;5032392;28;20046;-66
2023/02/28 04:14:52;;;;;;;3.20;1.67;;;;;;;;;;5032480;28;20018;-66
2023/02/28 04:17:18;;;;;;;3.05;1.40;;;;;;;;;;5032524;28;20088;-67
2023/02/28 04:19:44;;;;;;;2.58;1.50;;;;;;;;;;5032095;28;20057;-67
2023/02/28 04:22:10;;;;;;;2.67;1.38;;;;;;;;;;5032582;28;20061;-67
2023/02/28 04:24:36;;;;;;;3.30;1.80;;;;;;;;;;5032970;28;20021;-66
2023/02/28 04:27:03;;;;;;;3.22;1.40;;;;;;;;;;5032019;28;20026;-66
2023/02/28 04:29:30;;;;;;;2.78;1.33;;;;;;;;;;5032350;28;20091;-63
2023/02/28 04:31:57;;;;;;;2.60;1.30;;;;;;;;;;5032000;28;20037;-66
2023/02/28 04:34:24;;;;;;;2.72;1.45;;;;;;;;;;5032195;28;20022;-65
2023/02/28 04:36:50;;;;;;;4.30;1.45;;;;;;;;;;5031580;28;20079;-65
2023/02/28 04:39:18;;;;;;;4.68;1.63;;;;;;;;;;5032045;28;20021;-66
2023/02/28 04:41:44;;;;;;;4.25;1.40;;;;;;;;;;5032027;28;20037;-63
2023/02/28 04:44:10;;;;;;;4.03;2.08;;;;;;;;;;5032178;28;20056;-64
2023/02/28 04:46:36;;;;;;;3.22;1.60;;;;;;;;;;5032251;28;20108;-66
2023/02/28 04:49:02;;;;;;;2.50;1.42;;;;;;;;;;5031359;28;20021;-65
2023/02/28 04:51:28;;;;;;;2.78;1.80;;;;;;;;;;5031913;28;20021;-62
2023/02/28 04:53:54;;;;;;;3.47;1.65;;;;;;;;;;5031215;28;20421;-67
2023/02/28 04:56:20;;;;;;;3.58;1.20;;;;;;;;;;5031631;28;20120;-66
2023/02/28 04:58:47;;;;;;;2.65;1.40;;;;;;;;;;5031516;28;20037;-66
2023/02/28 05:01:19;;;;;;;3.38;1.40;;;;;;;;;;5031262;28;20037;-66
2023/02/28 05:03:45;;;;;;;3.10;1.55;;;;;;;;;;5031447;28;20040;-64
2023/02/28 05:06:12;;;;;;;4.10;1.63;;;;;;;;;;5031339;28;20036;-63
2023/02/28 05:08:38;;;;;;;3.80;1.58;;;;;;;;;;5031325;28;20079;-67
2023/02/28 05:11:04;;;;;;;3.17;1.30;;;;;;;;;;5031596;28;20033;-66
2023/02/28 05:13:30;;;;;;;3.88;1.60;;;;;;;;;;5030669;28;20099;-63
2023/02/28 05:15:56;;;;;;;2.85;1.40;;;;;;;;;;5030109;28;20025;-63
2023/02/28 05:18:22;;;;;;;3.35;1.67;;;;;;;;;;5033122;28;20033;-60
2023/02/28 05:20:48;;;;;;;2.55;1.23;;;;;;;;;;5030641;28;20044;-63
2023/02/28 05:23:15;;;;;;;3.67;1.50;;;;;;;;;;5031041;28;20386;-62
2023/02/28 05:25:41;;;;;;;3.25;1.70;;;;;;;;;;5030928;28;20017;-63
2023/02/28 05:28:08;;;;;;;2.80;1.20;;;;;;;;;;5031687;28;20022;-62
2023/02/28 05:30:34;;;;;;;3.33;1.45;;;;;;;;;;5031578;28;20036;-66
2023/02/28 05:33:00;;;;;;;2.75;1.50;;;;;;;;;;5031002;28;20038;-60
2023/02/28 05:35:26;;;;;;;2.90;1.33;;;;;;;;;;5031066;28;20506;-62
2023/02/28 05:37:52;;;;;;;3.58;1.63;;;;;;;;;;5030901;28;20017;-61
2023/02/28 05:40:20;;;;;;;2.67;1.30;;;;;;;;;;5031102;28;20489;-61
2023/02/28 05:42:46;;;;;;;3.72;1.50;;;;;;;;;;5030430;28;20028;-61
2023/02/28 05:45:12;;;;;;;4.40;1.38;;;;;;;;;;5031030;28;20029;-65
2023/02/28 05:47:38;;;;;;;2.80;1.33;;;;;;;;;;5031601;28;20101;-64
2023/02/28 05:50:04;;;;;;;3.38;1.30;;;;;;;;;;5030429;28;20029;-60
2023/02/28 05:52:30;;;;;;;2.17;1.25;;;;;;;;;;5030629;28;20455;-61
2023/02/28 05:54:56;;;;;;;3.45;1.60;;;;;;;;;;5030836;28;20022;-62
2023/02/28 05:57:23;;;;;;;3.63;1.60;;;;;;;;;;5030452;28;20025;-60
2023/02/28 05:59:49;;;;;;;3.63;1.92;;;;;;;;;;5030416;28;20112;-61
2023/02/28 06:02:16;;;;;;;3.53;1.45;;;;;;;;;;5030648;28;20570;-64
2023/02/28 06:04:42;;;;;;;2.92;1.75;;;;;;;;;;5026858;28;20018;-61
2023/02/28 06:07:08;;;;;;;2.38;1.20;;;;;;;;;;5031271;28;20033;-61
2023/02/28 06:09:34;;;;;;;3.75;1.80;;;;;;;;;;5031109;28;20509;-63
2023/02/28 06:12:03;;;;;;;2.58;1.50;;;;;;;;;;5028282;28;20034;-64
2023/02/28 06:14:31;;;;;;;2.80;1.40;;;;;;;;;;5030766;28;20021;-64
2023/02/28 06:16:57;;;;;;;4.70;1.83;;;;;;;;;;5029715;28;20032;-63
2023/02/28 06:19:25;;;;;;;2.38;1.40;;;;;;;;;;5030631;28;20056;-64
2023/02/28 06:21:52;;;;;;;3.65;1.63;;;;;;;;;;5030175;28;20060;-61
2023/02/28 06:24:18;;;;;;;4.65;1.70;;;;;;;;;;5030388;28;20071;-62
2023/02/28 06:26:44;;;;;;;4.25;1.65;;;;;;;;;;5030251;28;20037;-61
2023/02/28 06:29:10;;;;;;;3.67;1.63;;;;;;;;;;5030441;28;20100;-65
2023/02/28 06:31:36;;;;;;;4.10;1.52;;;;;;;;;;5031135;28;20033;-64
2023/02/28 06:34:02;;;;;;;4.25;1.65;;;;;;;;;;5029903;28;20022;-65
2023/02/28 06:36:28;;;;;;;3.67;1.42;;;;;;;;;;5030982;28;20030;-63
2023/02/28 06:38:55;;;;;;;2.30;1.35;;;;;;;;;;5030665;28;20018;-63
2023/02/28 06:41:25;;;;;;;5.78;1.83;;;;;;;;;;5030829;28;20041;-65
2023/02/28 06:43:51;;;;;;;3.38;1.55;;;;;;;;;;5030607;28;20109;-63
2023/02/28 06:46:17;;;;;;;2.67;1.40;;;;;;;;;;5035493;28;20013;-63
2023/02/28 06:48:44;;;;;;;2.67;1.20;;;;;;;;;;5038286;28;20439;-62
2023/02/28 06:51:17;;;;;;;4.25;1.50;;;;;;;;;;5045157;28;20029;-63
2023/02/28 06:53:44;;;;;;;4.25;1.50;;;;;;;;;;5036834;28;20066;-65
2023/02/28 06:56:10;;;;;;;5.78;1.38;;;;;;;;;;5034314;28;20057;-66
2023/02/28 06:58:37;;;;;;;5.35;1.70;;;;;;;;;;5034860;28;20033;-67
2023/02/28 07:01:03;;;;;;;10.68;1.90;;;;;;;;;;5034192;28;20048;-65
2023/02/28 07:03:29;;;;;;;11.02;1.67;;;;;;;;;;5033535;28;20075;-65
2023/02/28 07:05:56;;;;;;;6.35;1.50;;;;;;;;;;5034278;28;20488;-65
2023/02/28 07:08:23;;;;;;;5.38;1.75;;;;;;;;;;5034230;28;20115;-65
2023/02/28 07:10:52;;;;;;;3.38;1.42;;;;;;;;;;5033842;28;20030;-66
2023/02/28 07:13:18;;;;;;;3.78;1.58;;;;;;;;;;5034211;28;20108;-65
2023/02/28 07:15:44;;;;;;;6.65;2.22;;;;;;;;;;5033912;28;20407;-63
2023/02/28 07:18:10;;;;;;;6.63;1.70;;;;;;;;;;5032761;28;20029;-61
2023/02/28 07:20:36;;;;;;;7.78;1.77;;;;;;;;;;5033954;28;20087;-62
2023/02/28 07:23:02;;;;;;;4.55;1.75;;;;;;;;;;5033837;28;20021;-62
2023/02/28 07:25:28;;;;;;;6.57;2.13;;;;;;;;;;5033417;28;20032;-62
2023/02/28 07:27:55;;;;;;;4.35;1.48;;;;;;;;;;5033694;28;20030;-62
2023/02/28 07:30:21;;;;;;;8.80;1.75;;;;;;;;;;5033907;28;20072;-63
2023/02/28 07:32:47;;;;;;;5.38;1.77;;;;;;;;;;5033803;28;20105;-63
2023/02/28 07:35:15;;;;;;;5.72;1.25;;;;;;;;;;5033325;28;20030;-62
2023/02/28 07:37:41;;;;;;;5.82;1.70;;;;;;;;;;5032029;28;20536;-62
2023/02/28 07:40:08;;;;;;;3.00;1.88;;;;;;;;;;5031978;28;20029;-62
2023/02/28 07:42:35;;;;;;;5.85;1.65;;;;;;;;;;5032187;28;20075;-62
2023/02/28 07:45:01;;;;;;;3.15;1.63;;;;;;;;;;5033396;28;20386;-62
2023/02/28 07:47:27;;;;;;;5.65;1.50;;;;;;;;;;5033668;28;20482;-61
2023/02/28 07:49:53;;;;;;;9.82;1.85;;;;;;;;;;5033288;28;20040;-62
2023/02/28 07:52:19;;;;;;;7.97;2.28;;;;;;;;;;5033284;28;20021;-62
2023/02/28 07:54:45;;;;;;;6.60;1.63;;;;;;;;;;5033108;28;20092;-63
2023/02/28 07:57:11;;;;;;;7.47;2.47;;;;;;;;;;5032755;28;20022;-62
2023/02/28 07:59:37;;;;;;;9.82;2.03;;;;;;;;;;5033594;28;20543;-63
2023/02/28 08:02:03;;;;;;;6.50;1.95;;;;;;;;;;5032416;28;20128;-62
2023/02/28 08:04:32;;;;;;;3.20;1.83;;;;;;;;;;5031762;28;20752;-62
2023/02/28 08:06:57;;;;;;;6.05;1.70;;;;;;;;;;5030624;28;20030;-62
2023/02/28 08:09:23;;;;;;;5.15;2.10;;;;;;;;;;5031584;28;20401;-62
2023/02/28 08:11:49;;;;;;;3.83;1.55;;;;;;;;;;5031263;28;20029;-62
2023/02/28 08:14:16;;;;;;;4.45;1.95;;;;;;;;;;5031766;28;20097;-62
2023/02/28 08:16:42;;;;;;;7.95;2.60;;;;;;;;;;5031130;28;20486;-62
2023/02/28 08:19:09;;;;;;;8.52;2.03;;;;;;;;;;5031352;28;20461;-62
2023/02/28 08:21:35;;;;;;;4.57;1.80;;;;;;;;;;5031410;28;20449;-64
2023/02/28 08:24:01;;;;;;;5.55;1.83;;;;;;;;;;5030854;28;20470;-64
2023/02/28 08:26:27;;;;;;;5.47;2.00;;;;;;;;;;5031068;28;20040;-64
2023/02/28 08:28:53;;;;;;;7.90;1.75;;;;;;;;;;5030976;28;20025;-64
2023/02/28 08:31:19;;;;;;;4.18;1.95;;;;;;;;;;5031640;28;20505;-64
2023/02/28 08:33:47;;;;;;;6.60;2.08;;;;;;;;;;5032616;28;20374;-63
2023/02/28 08:36:13;;;;;;;3.95;1.77;;;;;;;;;;5032804;28;20029;-64
2023/02/28 08:38:39;;;;;;;5.82;1.60;;;;;;;;;;5032853;28;20018;-64
2023/02/28 08:41:08;;;;;;;5.03;1.67;;;;;;;;;;5033095;28;20033;-64
2023/02/28 08:43:35;;;;;;;5.18;1.80;;;;;;;;;;5033122;28;20029;-64
2023/02/28 08:46:00;;;;;;;3.72;1.60;;;;;;;;;;5032472;28;20389;-64
2023/02/28 08:48:28;;;;;;;4.60;1.88;;;;;;;;;;5032585;28;20029;-63
2023/02/28 08:50:58;;;;;;;3.97;1.70;;;;;;;;;;5032345;28;20032;-64
2023/02/28 08:53:24;;;;;;;7.30;1.92;;;;;;;;;;5032504;28;20036;-64
2023/02/28 08:55:58;;;;;;;4.20;1.90;;;;;;;;;;5032283;28;20025;-64
2023/02/28 08:58:24;;;;;;;2.90;1.52;;;;;;;;;;5032311;28;20029;-64
2023/02/28 09:00:50;;;;;;;2.70;1.40;;;;;;;;;;5030674;28;20044;-64
2023/02/28 09:03:17;;;;;;;6.30;2.28;;;;;;;;;;5032388;28;20022;-64
2023/02/28 09:05:52;;;;;;;6.47;1.63;;;;;;;;;;5031947;28;20028;-64
2023/02/28 09:08:18;;;;;;;5.15;1.80;;;;;;;;;;5032219;28;20029;-64
2023/02/28 09:10:43;;;;;;;5.07;1.60;;;;;;;;;;5031943;28;20029;-64
2023/02/28 09:13:09;;;;;;;5.07;1.67;;;;;;;;;;5032077;28;20083;-64
2023/02/28 09:15:37;;;;;;;4.45;2.00;;;;;;;;;;5032442;28;20036;-64
2023/02/28 09:18:03;;;;;;;4.55;1.58;;;;;;;;;;5030002;28;20051;-64
2023/02/28 09:20:29;;;;;;;3.63;1.58;;;;;;;;;;5031847;28;20030;-63
2023/02/28 09:22:55;;;;;;;4.40;2.10;;;;;;;;;;5031795;28;20036;-64
2023/02/28 09:25:21;;;;;;;4.20;1.65;;;;;;;;;;5031877;28;20390;-64
2023/02/28 09:27:48;;;;;;;5.15;1.60;;;;;;;;;;5031680;28;20025;-63
2023/02/28 09:30:14;;;;;;;3.00;1.52;;;;;;;;;;5031722;28;20518;-64
2023/02/28 09:32:40;;;;;;;2.67;1.58;;;;;;;;;;5031412;28;20502;-63
2023/02/28 09:35:12;;;;;;;3.58;2.08;;;;;;;;;;5032002;28;20029;-63
2023/02/28 09:37:39;;;;;;;3.17;1.55;;;;;;;;;;5031689;28;20029;-63
2023/02/28 09:40:05;;;;;;;3.25;1.65;;;;;;;;;;5032006;28;20036;-63
2023/02/28 09:42:32;;;;;;;2.85;1.80;;;;;;;;;;5031551;28;20113;-63
2023/02/28 09:44:59;;;;;;;3.85;1.55;;;;;;;;;;5031335;28;20108;-63
2023/02/28 09:47:33;;;;;;;5.35;1.73;;;;;;;;;;5038711;28;20777;-63
2023/02/28 09:50:03;;;;;;;2.72;1.20;;;;;;;;;;5039977;28;20167;-62
2023/02/28 09:52:30;;;;;;;4.30;1.60;;;;;;;;;;5041836;28;20033;-63
2023/02/28 09:54:59;;;;;;;4.70;1.70;;;;;;;;;;5040338;28;20022;-63
2023/02/28 09:57:34;;;;;;;2.47;1.45;;;;;;;;;;5039482;28;20025;-63
2023/02/28 10:00:10;;;;;;;2.88;1.40;;;;;;;;;;5039801;28;20016;-63
2023/02/28 10:02:47;;;;;;;3.15;1.60;;;;;;;;;;5039060;28;20039;-63
2023/02/28 10:05:16;;;;;;;5.72;1.75;;;;;;;;;;5037771;28;20025;-63
2023/02/28 10:07:58;;;;;;;3.35;1.55;;;;;;;;;;5039450;28;20071;-63
2023/02/28 10:10:30;;;;;;;3.90;1.83;;;;;;;;;;5040560;28;20043;-62
2023/02/28 10:12:57;;;;;;;3.30;1.92;;;;;;;;;;5040288;28;20147;-63
2023/02/28 10:15:26;;;;;;;2.45;1.42;;;;;;;;;;5039404;28;20025;-62
2023/02/28 10:17:54;;;;;;;2.55;1.42;;;;;;;;;;5037045;28;20038;-63
2023/02/28 10:20:22;;;;;;;2.22;1.30;;;;;;;;;;5039708;28;20021;-62
2023/02/28 10:22:57;;;;;;;3.25;1.63;;;;;;;;;;5041022;28;20021;-63
2023/02/28 10:25:25;;;;;;;4.25;1.75;;;;;;;;;;5041154;28;20029;-63
2023/02/28 10:27:58;;;;;;;3.15;1.38;;;;;;;;;;5035499;28;20025;-63
2023/02/28 10:30:24;;;;;;;3.17;1.50;;;;;;;;;;5043340;28;20052;-62
2023/02/28 10:32:53;;;;;;;4.22;1.60;;;;;;;;;;5045066;28;20021;-63
2023/02/28 10:35:21;;;;;;;3.17;1.45;;;;;;;;;;5044525;28;20437;-63
2023/02/28 10:37:51;;;;;;;4.18;1.60;;;;;;;;;;5042851;28;20049;-63
2023/02/28 10:40:17;;;;;;;2.97;1.63;;;;;;;;;;5043999;28;20040;-63
2023/02/28 10:42:55;;;;;;;2.40;1.50;;;;;;;;;;5041822;28;20450;-63
2023/02/28 10:45:21;;;;;;;3.92;1.20;;;;;;;;;;5034971;28;20034;-63
2023/02/28 10:48:01;;;;;;;5.10;1.85;;;;;;;;;;5034692;28;20087;-64
2023/02/28 10:50:27;;;;;;;3.20;1.70;;;;;;;;;;5034801;28;20032;-63
2023/02/28 10:52:53;;;;;;;5.28;1.50;;;;;;;;;;5034593;28;20024;-64
2023/02/28 10:55:19;;;;;;;2.95;1.52;;;;;;;;;;5034771;28;20025;-64
2023/02/28 10:57:47;;;;;;;2.58;1.35;;;;;;;;;;5034325;28;20029;-64
2023/02/28 11:00:18;;;;;;;4.22;1.38;;;;;;;;;;5034574;28;20066;-64
2023/02/28 11:02:46;;;;;;;4.43;1.08;;;;;;;;;;5034280;28;20520;-63
2023/02/28 11:05:27;;;;;;;3.45;1.48;;;;;;;;;;5034693;28;20030;-64
2023/02/28 11:07:54;;;;;;;2.92;1.33;;;;;;;;;;5034307;28;20021;-64
2023/02/28 11:10:23;;;;;;;2.58;1.30;;;;;;;;;;5034361;28;20478;-64
2023/02/28 11:12:50;;;;;;;2.75;1.40;;;;;;;;;;5034075;28;20025;-64
2023/02/28 11:15:23;;;;;;;3.38;1.50;;;;;;;;;;5034592;28;20033;-65
2023/02/28 11:17:57;;;;;;;3.25;1.70;;;;;;;;;;5034000;28;20083;-63
2023/02/28 11:20:25;;;;;;;2.70;1.63;;;;;;;;;;5034255;28;20494;-63
2023/02/28 11:22:52;;;;;;;3.63;1.77;;;;;;;;;;5034054;28;20025;-63
2023/02/28 11:25:23;;;;;;;3.70;1.40;;;;;;;;;;5034179;28;20033;-63
2023/02/28 11:27:50;;;;;;;3.10;1.50;;;;;;;;;;5033903;28;20030;-63
2023/02/28 11:30:33;;;;;;;2.85;1.15;;;;;;;;;;5034105;28;20033;-63
2023/02/28 11:33:00;;;;;;;3.35;1.60;;;;;;;;;;5033802;28;20049;-63
2023/02/28 11:35:37;;;;;;;2.25;1.13;;;;;;;;;;5033932;28;20034;-63
2023/02/28 11:38:03;;;;;;;1.60;0.98;;;;;;;;;;5033645;28;20022;-63
2023/02/28 11:40:38;;;;;;;3.10;1.27;;;;;;;;;;5033058;28;20429;-63
2023/02/28 11:43:11;;;;;;;5.13;1.37;;;;;;;;;;5033631;28;20099;-63
2023/02/28 11:45:43;;;;;;;2.53;1.27;;;;;;;;;;5034142;28;20037;-63
2023/02/28 11:48:15;;;;;;;3.03;1.08;;;;;;;;;;5033689;28;20420;-63
2023/02/28 11:50:52;;;;;;;2.95;1.10;;;;;;;;;;5033478;28;20079;-63
2023/02/28 11:53:44;;;;;;;2.22;1.20;;;;;;;;;;5033675;28;20021;-63
2023/02/28 11:56:11;;;;;;;2.88;1.05;;;;;;;;;;5033729;28;20025;-63
2023/02/28 11:58:36;;;;;;;2.70;1.15;;;;;;;;;;5033689;28;20060;-63
2023/02/28 12:01:08;;;;;;;2.35;1.10;;;;;;;;;;5033230;28;20069;-66
2023/02/28 12:03:43;;;;;;;1.60;1.05;;;;;;;;;;5033758;28;20032;-64
2023/02/28 12:06:23;;;;;;;2.03;1.45;;;;;;;;;;5033313;28;20437;-64
2023/02/28 12:08:51;;;;;;;2.92;1.20;;;;;;;;;;5032930;28;20029;-63
2023/02/28 12:11:18;;;;;;;3.13;1.38;;;;;;;;;;5033373;28;20147;-63
2023/02/28 12:13:43;;;;;;;2.42;0.95;;;;;;;;;;5033098;28;20079;-63
2023/02/28 12:16:28;;;;;;;1.55;0.85;;;;;;;;;;5033151;28;20029;-63
2023/02/28 12:19:05;;;;;;;2.10;1.00;;;;;;;;;;5032902;28;20025;-64
2023/02/28 12:21:34;;;;;;;2.55;1.30;;;;;;;;;;5033021;28;20072;-64
2023/02/28 12:24:29;;;;;;;2.28;1.20;;;;;;;;;;5032892;28;20108;-64
2023/02/28 12:26:58;;;;;;;1.83;1.00;;;;;;;;;;5031917;28;20115;-64
2023/02/28 12:29:29;;;;;;;3.25;1.10;;;;;;;;;;5033003;28;20018;-63
2023/02/28 12:31:58;;;;;;;2.75;1.10;;;;;;;;;;5032695;28;20087;-63
2023/02/28 12:34:31;;;;;;;3.17;0.80;;;;;;;;;;5033301;28;20393;-63
2023/02/28 12:36:59;;;;;;;3.47;1.08;;;;;;;;;;5032717;28;20036;-64
2023/02/28 12:39:35;;;;;;;2.45;0.90;;;;;;;;;;5032796;28;20039;-64
2023/02/28 12:42:11;;;;;;;2.72;1.00;;;;;;;;;;5032589;28;20104;-63
2023/02/28 12:44:49;;;;;;;1.83;0.98;;;;;;;;;;5032898;28;20113;-64
2023/02/28 12:47:17;;;;;;;2.30;1.00;;;;;;;;;;5032452;28;20033;-63
2023/02/28 12:49:49;;;;;;;1.52;0.85;;;;;;;;;;5032381;28;20022;-63
2023/02/28 12:52:18;;;;;;;1.85;0.85;;;;;;;;;;5031515;28;20037;-63
2023/02/28 12:54:51;;;;;;;2.85;1.02;;;;;;;;;;5032176;28;20041;-63
2023/02/28 12:57:17;;;;;;;3.40;1.48;;;;;;;;;;5032277;28;20387;-63
2023/02/28 12:59:49;;;;;;;2.65;0.85;;;;;;;;;;5032119;28;20032;-63
2023/02/28 13:02:34;;;;;;;1.63;0.80;;;;;;;;;;5032480;28;20030;-63
2023/02/28 13:05:15;;;;;;;2.67;0.90;;;;;;;;;;5031983;28;20120;-64
2023/02/28 13:07:59;;;;;;;1.20;0.70;;;;;;;;;;5032008;28;20385;-63
2023/02/28 13:10:38;;;;;;;4.10;0.90;;;;;;;;;;5031974;28;20040;-64
2023/02/28 13:13:04;;;;;;;2.30;0.77;;;;;;;;;;5031838;28;20461;-63
2023/02/28 13:15:30;;;;;;;1.80;0.80;;;;;;;;;;5032241;28;20478;-63
2023/02/28 13:17:58;;;;;;;2.78;1.10;;;;;;;;;;5031778;28;20083;-63
2023/02/28 13:20:30;;;;;;;2.67;0.98;;;;;;;;;;5031984;28;20029;-63
2023/02/28 13:23:01;;;;;;;1.65;0.85;;;;;;;;;;5031742;28;20593;-64
2023/02/28 13:25:29;;;;;;;3.28;0.95;;;;;;;;;;5032049;28;20393;-63
2023/02/28 13:27:56;;;;;;;1.30;0.70;;;;;;;;;;5031663;28;20106;-63
2023/02/28 13:30:41;;;;;;;1.58;0.90;;;;;;;;;;5031594;28;20047;-63
2023/02/28 13:33:25;;;;;;;1.30;0.68;;;;;;;;;;5032131;28;20031;-63
2023/02/28 13:36:10;;;;;;;1.55;1.00;;;;;;;;;;5031564;28;20030;-63
2023/02/28 13:38:47;;;;;;;1.50;0.70;;;;;;;;;;5032017;28;20367;-63
2023/02/28 13:41:28;;;;;;;1.65;0.80;;;;;;;;;;5031338;28;20041;-62
2023/02/28 13:44:05;;;;;;;1.42;0.70;;;;;;;;;;5031302;28;20025;-62
2023/02/28 13:46:32;;;;;;;2.58;0.85;;;;;;;;;;5031564;28;20033;-63
2023/02/28 13:49:18;;;;;;;1.63;0.68;;;;;;;;;;5031519;28;20428;-62
2023/02/28 13:51:46;;;;;;;1.25;0.77;;;;;;;;;;5031149;28;20038;-62
2023/02/28 13:54:21;;;;;;;1.10;0.75;;;;;;;;;;5031448;28;20100;-62
2023/02/28 13:57:07;;;;;;;1.38;0.60;;;;;;;;;;5031231;28;20037;-62
2023/02/28 13:59:52;;;;;;;2.40;0.90;;;;;;;;;;5027227;28;20041;-62
2023/02/28 14:02:44;;;;;;;1.40;0.75;;;;;;;;;;5029965;28;20120;-62
2023/02/28 14:05:19;;;;;;;0.98;0.60;;;;;;;;;;5031176;28;20105;-62
2023/02/28 14:07:56;;;;;;;1.13;0.70;;;;;;;;;;5031060;28;20105;-64
2023/02/28 14:10:30;;;;;;;1.35;0.90;;;;;;;;;;5030817;28;20475;-64
2023/02/28 14:13:14;;;;;;;2.17;0.98;;;;;;;;;;5030820;28;20537;-64
2023/02/28 14:15:40;;;;;;;1.10;0.70;;;;;;;;;;5030813;28;20576;-64
2023/02/28 14:18:24;;;;;;;1.75;0.82;;;;;;;;;;5031308;28;20489;-64
2023/02/28 14:20:52;;;;;;;1.73;0.65;;;;;;;;;;5030821;28;20120;-64
2023/02/28 14:23:21;;;;;;;1.27;0.70;;;;;;;;;;5031077;28;20520;-63
2023/02/28 14:25:50;;;;;;;1.45;0.80;;;;;;;;;;5030865;28;20405;-63
2023/02/28 14:28:29;;;;;;;1.38;0.65;;;;;;;;;;5031040;28;20088;-63
2023/02/28 14:30:58;;;;;;;1.83;0.80;;;;;;;;;;5030751;28;20030;-63
2023/02/28 14:33:27;;;;;;;1.05;0.60;;;;;;;;;;5030942;28;20079;-63
2023/02/28 14:36:05;;;;;;;1.17;0.70;;;;;;;;;;5030783;28;20032;-64
2023/02/28 14:38:33;;;;;;;1.50;0.52;;;;;;;;;;5030949;28;20091;-64
2023/02/28 14:41:02;;;;;;;1.83;0.75;;;;;;;;;;5030567;28;20525;-63
2023/02/28 14:43:29;;;;;;;6.38;0.90;;;;;;;;;;5030928;28;20021;-64
2023/02/28 14:45:59;;;;;;;1.63;0.60;;;;;;;;;;5030536;28;20036;-64
2023/02/28 14:48:26;;;;;;;1.55;0.75;;;;;;;;;;5030923;28;20021;-64
2023/02/28 14:50:54;;;;;;;1.33;0.60;;;;;;;;;;5030540;28;20505;-64
2023/02/28 14:53:21;;;;;;;1.58;0.60;;;;;;;;;;5030877;28;20022;-63
2023/02/28 14:55:48;;;;;;;1.10;0.50;;;;;;;;;;5030479;28;20025;-63